Impacts TAF Board
For situational awareness. Not to be used for flight planning purposes.
IDs:

KMRB - Martinsburg/E West V, WV, US

Issued at 2050 UTC 26 Feb 2020
Updated at 2315 UTC 26 Feb 2020
Potential Impact None Slight Moderate High
Time2300Z 27/00Z 27/01Z 27/02Z 27/03Z 27/04Z 27/05Z 27/06Z 27/07Z 27/08Z 27/09Z 27/10Z 27/11Z 27/12Z>>
Type OBS PRVL PRVL PRVL PRVL PRVL PRVL PRVL PRVL PRVL PRVL PRVL PRVL PRVL
VIS 3 2 5 5 2 4 4 5 >6 >6 >6 >6 >6 >6
CIG 3 4 3 3 10 20 20 45 110 110 110 110 110 110
Cover OVC OVC OVC OVC OVC OVC OVC OVC BKN BKN BKN BKN BKN BKN
FltCat LIFR LIFR LIFR LIFR IFR MVFR MVFR MVFR VFR VFR VFR VFR VFR VFR
WX BR BR -SHRA -SHRA SHRA SHRA SHRA -SHRA -- -- -- -- -- --
WDir 120 220 200 200 250 250 250 280 280 280 280 280 280 280
WSpd 6 3 6 6 8 8 8 10 11 11 11 11 11 11
WGst -- -- -- -- -- -- -- 19 19 19 19 19 19 19
Raw TAF
KMRB 262050Z 2621/2718 22003KT 2SM BR OVC004
  FM270100 20006KT 5SM -SHRA OVC003
  FM270300 25008KT 2SM SHRA OVC010
  FM270400 25008KT 4SM SHRA OVC020
  FM270600 28010G19KT 5SM -SHRA OVC045
  FM270700 28011G19KT P6SM BKN110
  FM271400 28020G35KT P6SM FEW130


Raw METAR
KMRB 262300Z AUTO 12006KT 3SM BR OVC003 09/08 A2966 RMK AO2 T00890083
KMRB 262253Z AUTO 12009KT 1 3/4SM BR OVC003 09/08 A2966 RMK AO2 VIS 1 1/4V2 1/2 SLP045 T00890083
KMRB 262225Z AUTO 13006KT 1 1/2SM BR OVC004 09/09 A2968 RMK AO2 T00940089
KMRB 262153Z 14005KT 2 1/2SM BR OVC004 10/09 A2970 RMK AO2 SLP058 T01000094
KMRB 262116Z 12007KT 2 1/2SM BR OVC003 10/09 A2971 RMK AO2 T01000094
KMRB 262053Z 10004KT 1SM BR OVC004 10/09 A2972 RMK AO2 SLP064 T01000094 58034

METAR Board
Radar Display
Forecast Discussion
For situational awareness. Not to be used for flight planning purposes.